Time;durP1;ratioP1;P1;durP2;ratioP2;P2;SDS_P1;SDS_P2;PMS_P1;PMS_P2;Temp;Humidity;BMP_temperature;BMP_pressure;BME280_temperature;BME280_humidity;BME280_pressure;Samples;Min_cycle;Max_cycle;Signal;HPM_P1;HPM_P2
2022/07/31 00:02:25;;;;;;;33.92;13.88;;;;;;;;;;4972298;28;20042;-61
2022/07/31 00:04:52;;;;;;;39.03;14.02;;;;;;;;;;4970979;28;20552;-62
2022/07/31 00:07:19;;;;;;;34.40;12.77;;;;;;;;;;4972174;28;20491;-61
2022/07/31 00:09:46;;;;;;;38.88;13.90;;;;;;;;;;4986721;28;20068;-62
2022/07/31 00:12:13;;;;;;;39.72;14.10;;;;;;;;;;4991510;28;20027;-62
2022/07/31 00:14:40;;;;;;;39.92;15.30;;;;;;;;;;4991915;28;20496;-62
2022/07/31 00:17:07;;;;;;;36.25;13.30;;;;;;;;;;4992400;28;20711;-62
2022/07/31 00:19:34;;;;;;;33.13;14.13;;;;;;;;;;4991085;28;20038;-62
2022/07/31 00:22:01;;;;;;;34.72;13.88;;;;;;;;;;4989948;28;20124;-62
2022/07/31 00:24:28;;;;;;;38.42;13.93;;;;;;;;;;4987287;28;20102;-61
2022/07/31 00:26:55;;;;;;;32.90;13.15;;;;;;;;;;4976562;28;20030;-61
2022/07/31 00:29:22;;;;;;;36.22;13.40;;;;;;;;;;4990573;28;20026;-62
2022/07/31 00:31:49;;;;;;;34.35;13.15;;;;;;;;;;4991663;28;20396;-61
2022/07/31 00:34:16;;;;;;;36.03;13.95;;;;;;;;;;4991332;28;20026;-62
2022/07/31 00:36:43;;;;;;;34.42;13.27;;;;;;;;;;4991220;28;20029;-62
2022/07/31 00:39:10;;;;;;;26.60;12.50;;;;;;;;;;4990254;28;20034;-62
2022/07/31 00:41:41;;;;;;;32.67;13.45;;;;;;;;;;4990811;28;20034;-61
2022/07/31 00:44:09;;;;;;;31.95;12.65;;;;;;;;;;4984639;28;20086;-62
2022/07/31 00:46:36;;;;;;;30.13;12.32;;;;;;;;;;4989728;28;20041;-62
2022/07/31 00:49:04;;;;;;;36.25;13.43;;;;;;;;;;4994219;28;20018;-60
2022/07/31 00:51:31;;;;;;;36.78;13.60;;;;;;;;;;4992000;28;20045;-60
2022/07/31 00:53:58;;;;;;;35.92;14.00;;;;;;;;;;4990979;28;20042;-61
2022/07/31 00:56:25;;;;;;;38.85;13.60;;;;;;;;;;4976179;28;20022;-60
2022/07/31 00:58:54;;;;;;;36.47;12.90;;;;;;;;;;4990830;28;20046;-60
2022/07/31 01:01:21;;;;;;;37.13;12.60;;;;;;;;;;4990882;28;20030;-61
2022/07/31 01:03:48;;;;;;;34.83;12.88;;;;;;;;;;4973341;28;20038;-59
2022/07/31 01:06:15;;;;;;;31.98;12.02;;;;;;;;;;4990618;28;20073;-61
2022/07/31 01:08:42;;;;;;;25.85;12.02;;;;;;;;;;4991105;28;20032;-60
2022/07/31 01:11:19;;;;;;;26.70;12.55;;;;;;;;;;4972859;28;20085;-66
2022/07/31 01:13:55;;;;;;;33.72;13.43;;;;;;;;;;4980535;28;20134;-60
2022/07/31 01:16:23;;;;;;;29.33;12.90;;;;;;;;;;4970218;28;20587;-60
2022/07/31 01:18:54;;;;;;;27.92;12.05;;;;;;;;;;4970897;28;20050;-62
2022/07/31 01:21:26;;;;;;;30.55;12.30;;;;;;;;;;4987738;28;20408;-61
2022/07/31 01:23:56;;;;;;;28.42;12.30;;;;;;;;;;4990978;28;20054;-61
2022/07/31 01:26:42;;;;;;;32.20;13.25;;;;;;;;;;4977987;28;20046;-60
2022/07/31 01:29:13;;;;;;;34.38;13.60;;;;;;;;;;4970787;28;20065;-60
2022/07/31 01:31:45;;;;;;;28.75;12.55;;;;;;;;;;4969649;28;20030;-59
2022/07/31 01:34:24;;;;;;;29.40;13.83;;;;;;;;;;4970328;28;20050;-60
2022/07/31 01:36:55;;;;;;;24.38;12.98;;;;;;;;;;4970207;28;20027;-61
2022/07/31 01:39:23;;;;;;;26.70;12.98;;;;;;;;;;4970111;28;20034;-60
2022/07/31 01:41:51;;;;;;;27.52;12.15;;;;;;;;;;4970632;28;20464;-62
2022/07/31 01:44:18;;;;;;;27.35;12.48;;;;;;;;;;4970485;28;20034;-61
2022/07/31 01:46:48;;;;;;;36.28;13.15;;;;;;;;;;4970126;28;20031;-60
2022/07/31 01:49:16;;;;;;;29.42;12.98;;;;;;;;;;4968530;28;20113;-61
2022/07/31 01:51:44;;;;;;;26.63;12.77;;;;;;;;;;4967493;28;20023;-60
2022/07/31 01:54:11;;;;;;;28.70;13.35;;;;;;;;;;4972468;28;20391;-59
2022/07/31 01:56:39;;;;;;;24.77;12.75;;;;;;;;;;4987400;28;20039;-60
2022/07/31 01:59:06;;;;;;;25.88;12.98;;;;;;;;;;4986719;28;20066;-61
2022/07/31 02:01:34;;;;;;;21.50;12.48;;;;;;;;;;4987612;28;20036;-60
2022/07/31 02:04:01;;;;;;;21.27;11.68;;;;;;;;;;4970150;28;20035;-60
2022/07/31 02:06:29;;;;;;;24.60;13.48;;;;;;;;;;4987518;28;20048;-60
2022/07/31 02:08:56;;;;;;;20.40;12.70;;;;;;;;;;4987316;28;20038;-60
2022/07/31 02:11:23;;;;;;;25.73;11.98;;;;;;;;;;4985924;28;20033;-61
2022/07/31 02:13:52;;;;;;;30.75;12.13;;;;;;;;;;4981446;28;20046;-59
2022/07/31 02:16:20;;;;;;;22.63;12.93;;;;;;;;;;4987603;28;20631;-61
2022/07/31 02:18:51;;;;;;;21.90;12.20;;;;;;;;;;4987719;28;20133;-59
2022/07/31 02:21:18;;;;;;;27.58;13.90;;;;;;;;;;4987058;28;20470;-59
2022/07/31 02:23:45;;;;;;;21.95;13.38;;;;;;;;;;4987363;28;20041;-59
2022/07/31 02:26:14;;;;;;;19.92;11.95;;;;;;;;;;4987547;28;20120;-61
2022/07/31 02:28:43;;;;;;;22.90;13.18;;;;;;;;;;4988213;28;20027;-59
2022/07/31 02:31:11;;;;;;;24.73;13.02;;;;;;;;;;4984055;28;20039;-60
2022/07/31 02:33:39;;;;;;;22.42;11.90;;;;;;;;;;4975089;28;20041;-60
2022/07/31 02:36:06;;;;;;;22.33;13.00;;;;;;;;;;4967803;28;20046;-59
2022/07/31 02:38:34;;;;;;;20.65;12.60;;;;;;;;;;4974285;28;20061;-58
2022/07/31 02:41:03;;;;;;;23.60;12.50;;;;;;;;;;4982841;28;20031;-57
2022/07/31 02:43:31;;;;;;;22.88;12.90;;;;;;;;;;4983106;28;20030;-60
2022/07/31 02:45:58;;;;;;;20.25;12.95;;;;;;;;;;4974228;28;20042;-61
2022/07/31 02:48:26;;;;;;;23.25;12.80;;;;;;;;;;4971438;28;20062;-63
2022/07/31 02:50:53;;;;;;;23.08;12.40;;;;;;;;;;4982594;28;20031;-58
2022/07/31 02:53:20;;;;;;;23.00;13.38;;;;;;;;;;4977180;28;20062;-57
2022/07/31 02:55:48;;;;;;;21.08;12.50;;;;;;;;;;4981188;28;20638;-58
2022/07/31 02:58:15;;;;;;;26.20;13.73;;;;;;;;;;4978677;28;20043;-57
2022/07/31 03:00:42;;;;;;;19.00;12.38;;;;;;;;;;4979285;28;20026;-58
2022/07/31 03:03:09;;;;;;;21.17;12.80;;;;;;;;;;4978442;28;20034;-62
2022/07/31 03:05:35;;;;;;;21.85;12.55;;;;;;;;;;4978330;28;20043;-60
2022/07/31 03:08:03;;;;;;;19.27;11.65;;;;;;;;;;4977847;28;20113;-60
2022/07/31 03:10:30;;;;;;;18.67;12.43;;;;;;;;;;4979257;28;20034;-59
2022/07/31 03:12:58;;;;;;;22.10;13.20;;;;;;;;;;4981378;28;20031;-56
2022/07/31 03:15:27;;;;;;;20.20;13.27;;;;;;;;;;4977319;28;20054;-56
2022/07/31 03:17:54;;;;;;;19.38;12.48;;;;;;;;;;4985735;28;20042;-60
2022/07/31 03:20:22;;;;;;;24.02;12.63;;;;;;;;;;4986719;28;20042;-60
2022/07/31 03:22:49;;;;;;;20.55;12.38;;;;;;;;;;4987181;28;20069;-60
2022/07/31 03:25:16;;;;;;;19.00;12.25;;;;;;;;;;4986808;28;20038;-60
2022/07/31 03:27:43;;;;;;;20.52;11.93;;;;;;;;;;4986547;28;20069;-60
2022/07/31 03:30:23;;;;;;;22.10;12.20;;;;;;;;;;4986307;28;20034;-62
2022/07/31 03:32:51;;;;;;;18.33;12.18;;;;;;;;;;4986930;28;20045;-63
2022/07/31 03:35:18;;;;;;;20.75;13.48;;;;;;;;;;4983006;28;20074;-59
2022/07/31 03:37:45;;;;;;;19.95;12.75;;;;;;;;;;4981376;28;20042;-59
2022/07/31 03:40:13;;;;;;;20.38;13.07;;;;;;;;;;4984779;28;20544;-60
2022/07/31 03:42:40;;;;;;;19.48;12.32;;;;;;;;;;4980221;28;20133;-59
2022/07/31 03:45:09;;;;;;;18.80;12.00;;;;;;;;;;4986061;28;20027;-59
2022/07/31 03:47:36;;;;;;;23.42;11.95;;;;;;;;;;4972571;28;20042;-60
2022/07/31 03:50:03;;;;;;;22.60;13.20;;;;;;;;;;4992219;28;20038;-56
2022/07/31 03:52:31;;;;;;;21.17;12.75;;;;;;;;;;4993151;28;20391;-57
2022/07/31 03:54:58;;;;;;;22.08;12.52;;;;;;;;;;4991786;28;20045;-58
2022/07/31 03:57:26;;;;;;;20.75;13.05;;;;;;;;;;4992678;28;20480;-58
2022/07/31 03:59:56;;;;;;;17.85;12.02;;;;;;;;;;4992511;28;20045;-58
2022/07/31 04:02:26;;;;;;;20.42;12.93;;;;;;;;;;4991849;28;20033;-57
2022/07/31 04:04:53;;;;;;;19.63;12.30;;;;;;;;;;4992276;28;20400;-59
2022/07/31 04:07:20;;;;;;;23.33;13.43;;;;;;;;;;4993223;28;20030;-56
2022/07/31 04:09:47;;;;;;;18.15;12.77;;;;;;;;;;4989358;28;20645;-58
2022/07/31 04:12:15;;;;;;;17.65;12.43;;;;;;;;;;4975306;28;20042;-55
2022/07/31 04:14:41;;;;;;;20.92;12.27;;;;;;;;;;4975047;28;20053;-57
2022/07/31 04:17:09;;;;;;;19.83;11.63;;;;;;;;;;4992216;28;20030;-56
2022/07/31 04:19:36;;;;;;;18.20;11.85;;;;;;;;;;4991846;28;20089;-58
2022/07/31 04:22:03;;;;;;;20.10;12.52;;;;;;;;;;4994535;28;20070;-57
2022/07/31 04:24:30;;;;;;;19.52;12.32;;;;;;;;;;4994725;28;20033;-57
2022/07/31 04:26:57;;;;;;;18.70;13.15;;;;;;;;;;4994700;28;20026;-58
2022/07/31 04:29:27;;;;;;;17.00;12.00;;;;;;;;;;4993267;28;20038;-57
2022/07/31 04:31:56;;;;;;;21.50;12.30;;;;;;;;;;4992243;28;20067;-58
2022/07/31 04:34:24;;;;;;;20.83;12.68;;;;;;;;;;4993209;28;20041;-56
2022/07/31 04:36:51;;;;;;;17.27;12.32;;;;;;;;;;4992369;28;20031;-57
2022/07/31 04:39:18;;;;;;;20.58;12.90;;;;;;;;;;4992257;28;20034;-57
2022/07/31 04:41:45;;;;;;;18.48;12.20;;;;;;;;;;4992892;28;20027;-57
2022/07/31 04:44:12;;;;;;;17.48;12.32;;;;;;;;;;4992862;28;20030;-57
2022/07/31 04:46:42;;;;;;;15.95;12.00;;;;;;;;;;4992254;28;20097;-58
2022/07/31 04:49:14;;;;;;;19.02;11.98;;;;;;;;;;4992777;28;20487;-57
2022/07/31 04:51:44;;;;;;;18.67;11.85;;;;;;;;;;4992311;28;20042;-57
2022/07/31 04:54:11;;;;;;;15.50;11.43;;;;;;;;;;4992442;28;20492;-57
2022/07/31 04:56:42;;;;;;;17.15;11.18;;;;;;;;;;4992738;28;20026;-57
2022/07/31 04:59:10;;;;;;;18.70;11.68;;;;;;;;;;4992221;28;20031;-57
2022/07/31 05:01:38;;;;;;;15.05;11.30;;;;;;;;;;4992349;28;20092;-57
2022/07/31 05:04:05;;;;;;;15.15;10.88;;;;;;;;;;4992048;28;20037;-57
2022/07/31 05:06:33;;;;;;;15.98;10.90;;;;;;;;;;4991626;28;20105;-57
2022/07/31 05:09:00;;;;;;;15.07;11.02;;;;;;;;;;4992460;28;20088;-57
2022/07/31 05:11:27;;;;;;;16.83;10.43;;;;;;;;;;4991801;28;20030;-58
2022/07/31 05:13:55;;;;;;;13.68;9.93;;;;;;;;;;4992154;28;20077;-57
2022/07/31 05:16:23;;;;;;;15.48;10.43;;;;;;;;;;4992157;28;20029;-57
2022/07/31 05:18:53;;;;;;;13.50;9.95;;;;;;;;;;4991974;28;20027;-57
2022/07/31 05:21:20;;;;;;;13.43;10.43;;;;;;;;;;4992104;28;20400;-58
2022/07/31 05:23:48;;;;;;;13.32;9.50;;;;;;;;;;4992241;28;20026;-59
2022/07/31 05:26:15;;;;;;;13.27;9.02;;;;;;;;;;4992392;28;20045;-57
2022/07/31 05:28:42;;;;;;;12.63;9.43;;;;;;;;;;4992110;28;20109;-57
2022/07/31 05:31:10;;;;;;;13.90;9.60;;;;;;;;;;4991720;28;20037;-58
2022/07/31 05:33:37;;;;;;;12.75;9.30;;;;;;;;;;4992185;28;20520;-56
2022/07/31 05:36:04;;;;;;;12.82;8.73;;;;;;;;;;4992141;28;20105;-57
2022/07/31 05:38:31;;;;;;;12.07;8.57;;;;;;;;;;4991708;28;20031;-57
2022/07/31 05:40:58;;;;;;;11.95;8.95;;;;;;;;;;4992011;28;20545;-57
2022/07/31 05:43:26;;;;;;;11.43;8.27;;;;;;;;;;4991791;28;20046;-57
2022/07/31 05:45:53;;;;;;;12.80;7.93;;;;;;;;;;4992188;28;20611;-58
2022/07/31 05:48:20;;;;;;;11.77;8.63;;;;;;;;;;4991408;28;20515;-57
2022/07/31 05:50:48;;;;;;;10.80;7.72;;;;;;;;;;4992079;28;20449;-57
2022/07/31 05:53:15;;;;;;;10.77;7.68;;;;;;;;;;4992020;28;20022;-57
2022/07/31 05:55:43;;;;;;;11.43;8.57;;;;;;;;;;4991401;28;20532;-57
2022/07/31 05:58:10;;;;;;;11.32;7.95;;;;;;;;;;4992134;28;20027;-57
2022/07/31 06:00:38;;;;;;;10.45;7.95;;;;;;;;;;4991406;28;20038;-57
2022/07/31 06:03:05;;;;;;;10.60;8.00;;;;;;;;;;4991791;28;20034;-57
2022/07/31 06:05:32;;;;;;;11.20;7.55;;;;;;;;;;4991783;28;20105;-57
2022/07/31 06:08:00;;;;;;;9.85;7.40;;;;;;;;;;4991722;28;20049;-57
2022/07/31 06:10:27;;;;;;;9.90;7.10;;;;;;;;;;4991963;28;20039;-58
2022/07/31 06:12:54;;;;;;;10.15;7.57;;;;;;;;;;4991397;28;20062;-57
2022/07/31 06:15:21;;;;;;;11.35;7.10;;;;;;;;;;4991642;28;20065;-57
2022/07/31 06:17:48;;;;;;;9.48;7.25;;;;;;;;;;4992106;28;20027;-57
2022/07/31 06:20:15;;;;;;;9.40;7.30;;;;;;;;;;4995233;28;20412;-57
2022/07/31 06:22:43;;;;;;;8.93;7.00;;;;;;;;;;4995427;28;20595;-57
2022/07/31 06:25:10;;;;;;;10.43;7.65;;;;;;;;;;4995023;28;20065;-57
2022/07/31 06:27:38;;;;;;;9.15;7.00;;;;;;;;;;4994046;28;20061;-57
2022/07/31 06:30:06;;;;;;;8.52;6.43;;;;;;;;;;4995190;28;20060;-57
2022/07/31 06:32:33;;;;;;;9.48;6.90;;;;;;;;;;4994963;28;20105;-57
2022/07/31 06:35:00;;;;;;;7.15;6.00;;;;;;;;;;4995026;28;20034;-58
2022/07/31 06:37:27;;;;;;;9.32;6.70;;;;;;;;;;4995024;28;20035;-58
2022/07/31 06:39:54;;;;;;;9.40;6.35;;;;;;;;;;4995079;28;20507;-59
2022/07/31 06:42:22;;;;;;;8.38;6.40;;;;;;;;;;4993458;28;20511;-59
2022/07/31 06:44:49;;;;;;;8.02;6.18;;;;;;;;;;4994950;28;20500;-57
2022/07/31 06:47:17;;;;;;;7.95;6.15;;;;;;;;;;4994678;28;20077;-57
2022/07/31 06:49:44;;;;;;;7.53;5.82;;;;;;;;;;4995139;28;20574;-57
2022/07/31 06:52:11;;;;;;;9.32;6.38;;;;;;;;;;4995007;28;20032;-57
2022/07/31 06:54:38;;;;;;;6.95;5.78;;;;;;;;;;4994315;28;20061;-58
2022/07/31 06:57:05;;;;;;;8.18;6.10;;;;;;;;;;4994955;28;20030;-59
2022/07/31 06:59:32;;;;;;;7.32;6.30;;;;;;;;;;4994045;28;20042;-57
2022/07/31 07:01:58;;;;;;;8.38;6.10;;;;;;;;;;4994845;28;20030;-58
2022/07/31 07:04:25;;;;;;;7.95;5.97;;;;;;;;;;4994767;28;20396;-57
2022/07/31 07:06:52;;;;;;;7.20;5.53;;;;;;;;;;4993969;28;20030;-58
2022/07/31 07:09:19;;;;;;;7.35;5.20;;;;;;;;;;4994759;28;20034;-58
2022/07/31 07:11:46;;;;;;;7.03;5.25;;;;;;;;;;4993745;28;20144;-59
2022/07/31 07:14:15;;;;;;;6.95;5.47;;;;;;;;;;4994377;28;20500;-57
2022/07/31 07:16:42;;;;;;;7.18;5.25;;;;;;;;;;4994559;28;20064;-59
2022/07/31 07:19:09;;;;;;;5.88;4.70;;;;;;;;;;4993812;28;20036;-58
2022/07/31 07:21:36;;;;;;;6.90;5.13;;;;;;;;;;4994593;28;20035;-57
2022/07/31 07:24:03;;;;;;;5.95;4.63;;;;;;;;;;4993828;28;20022;-56
2022/07/31 07:26:30;;;;;;;5.15;4.43;;;;;;;;;;4994531;28;20018;-58
2022/07/31 07:28:58;;;;;;;5.25;4.63;;;;;;;;;;4993960;28;20160;-58
2022/07/31 07:31:25;;;;;;;6.88;5.03;;;;;;;;;;4993710;28;20496;-58
2022/07/31 07:33:52;;;;;;;7.25;4.57;;;;;;;;;;4994031;28;20027;-57
2022/07/31 07:36:19;;;;;;;5.82;4.55;;;;;;;;;;4993454;28;20030;-56
2022/07/31 07:38:46;;;;;;;5.63;4.78;;;;;;;;;;4994249;28;20141;-58
2022/07/31 07:41:13;;;;;;;5.97;4.55;;;;;;;;;;4993002;28;20053;-58
2022/07/31 07:43:40;;;;;;;5.53;4.32;;;;;;;;;;4994156;28;20488;-57
2022/07/31 07:46:07;;;;;;;5.30;4.20;;;;;;;;;;4993875;28;20026;-57
2022/07/31 07:48:34;;;;;;;6.25;4.80;;;;;;;;;;4993716;28;20061;-58
2022/07/31 07:51:01;;;;;;;5.57;4.43;;;;;;;;;;4993206;28;20042;-58
2022/07/31 07:53:28;;;;;;;5.22;4.13;;;;;;;;;;4993954;28;20492;-55
2022/07/31 07:55:55;;;;;;;4.60;3.67;;;;;;;;;;4993102;28;20109;-57
2022/07/31 07:58:22;;;;;;;5.13;4.03;;;;;;;;;;4993378;28;20046;-58
2022/07/31 08:03:58;;;;;;;4.50;3.80;;;;;;;;;;4995604;28;20033;-57
2022/07/31 08:09:36;;;;;;;4.78;3.67;;;;;;;;;;4995345;28;20032;-57
2022/07/31 08:15:13;;;;;;;4.43;3.35;;;;;;;;;;4987332;28;20049;-57
2022/07/31 08:17:40;;;;;;;5.20;4.20;;;;;;;;;;4993198;28;20057;-57
2022/07/31 08:20:07;;;;;;;5.00;4.18;;;;;;;;;;4992682;28;20041;-56
2022/07/31 08:22:34;;;;;;;4.63;3.60;;;;;;;;;;4993140;28;20031;-57
2022/07/31 08:25:01;;;;;;;4.03;3.40;;;;;;;;;;4993437;28;20030;-57
2022/07/31 08:27:29;;;;;;;5.28;4.15;;;;;;;;;;4992545;28;20061;-57
2022/07/31 08:29:58;;;;;;;3.88;3.40;;;;;;;;;;4993325;28;20120;-58
2022/07/31 08:32:26;;;;;;;4.35;3.30;;;;;;;;;;4992160;28;20042;-57
2022/07/31 08:34:54;;;;;;;4.07;2.95;;;;;;;;;;4993304;28;20026;-57
2022/07/31 08:37:21;;;;;;;4.82;3.53;;;;;;;;;;4993169;28;20026;-56
2022/07/31 08:39:49;;;;;;;3.72;3.28;;;;;;;;;;4992083;28;20452;-57
2022/07/31 08:42:17;;;;;;;4.07;3.30;;;;;;;;;;4992205;28;20038;-55
2022/07/31 08:44:44;;;;;;;3.58;2.95;;;;;;;;;;4992254;28;20396;-56
2022/07/31 08:47:13;;;;;;;5.13;3.33;;;;;;;;;;4993077;28;20023;-57
2022/07/31 08:49:42;;;;;;;4.18;3.28;;;;;;;;;;4992945;28;20117;-57
2022/07/31 08:52:10;;;;;;;3.13;2.65;;;;;;;;;;4992335;28;20464;-57
2022/07/31 08:54:37;;;;;;;5.18;3.50;;;;;;;;;;4993005;28;20560;-57
2022/07/31 08:57:04;;;;;;;3.67;2.80;;;;;;;;;;4992112;28;20042;-57
2022/07/31 08:59:31;;;;;;;3.63;3.13;;;;;;;;;;4992757;28;20038;-57
2022/07/31 09:01:58;;;;;;;3.90;3.30;;;;;;;;;;4992608;28;20034;-57
2022/07/31 09:04:25;;;;;;;3.60;2.90;;;;;;;;;;4991833;28;20436;-58
2022/07/31 09:06:53;;;;;;;4.45;3.20;;;;;;;;;;4992771;28;20026;-57
2022/07/31 09:09:20;;;;;;;3.92;3.13;;;;;;;;;;4991770;28;20038;-57
2022/07/31 09:11:49;;;;;;;2.92;2.63;;;;;;;;;;4992470;28;20037;-57
2022/07/31 09:14:25;;;;;;;4.38;2.88;;;;;;;;;;4992155;28;20058;-57
2022/07/31 09:16:53;;;;;;;3.47;2.65;;;;;;;;;;4991943;28;20088;-57
2022/07/31 09:19:21;;;;;;;3.30;2.75;;;;;;;;;;4992375;28;20372;-57
2022/07/31 09:21:48;;;;;;;3.50;2.83;;;;;;;;;;4991439;28;20042;-57
2022/07/31 09:24:26;;;;;;;3.25;2.95;;;;;;;;;;4992527;28;20031;-57
2022/07/31 09:26:53;;;;;;;3.70;2.92;;;;;;;;;;4991851;28;20038;-58
2022/07/31 09:29:32;;;;;;;3.17;2.80;;;;;;;;;;4992087;28;20026;-58
2022/07/31 09:32:10;;;;;;;4.18;2.97;;;;;;;;;;4992370;28;20018;-58
2022/07/31 09:34:37;;;;;;;3.90;2.53;;;;;;;;;;4991771;28;20097;-55
2022/07/31 09:37:16;;;;;;;3.45;2.72;;;;;;;;;;4992408;28;20030;-55
2022/07/31 09:39:53;;;;;;;2.60;2.40;;;;;;;;;;4991596;28;20125;-57
2022/07/31 09:42:20;;;;;;;4.65;2.70;;;;;;;;;;4992077;28;20023;-58
2022/07/31 09:44:48;;;;;;;2.95;2.30;;;;;;;;;;4992039;28;20030;-58
2022/07/31 09:47:24;;;;;;;3.20;2.63;;;;;;;;;;4991903;28;20089;-55
2022/07/31 09:49:54;;;;;;;2.58;2.35;;;;;;;;;;4991668;28;20042;-57
2022/07/31 09:52:21;;;;;;;3.08;2.50;;;;;;;;;;4991829;28;20030;-58
2022/07/31 09:54:49;;;;;;;2.50;2.30;;;;;;;;;;4996166;28;20101;-56
2022/07/31 09:57:16;;;;;;;2.50;2.13;;;;;;;;;;4995668;28;20023;-58
2022/07/31 09:59:43;;;;;;;2.50;2.30;;;;;;;;;;4995979;28;20081;-58
2022/07/31 10:02:13;;;;;;;2.80;2.50;;;;;;;;;;4995625;28;20057;-57
2022/07/31 10:04:40;;;;;;;2.78;2.15;;;;;;;;;;4995604;28;20037;-58
2022/07/31 10:07:07;;;;;;;2.50;2.30;;;;;;;;;;4995938;28;20026;-58
2022/07/31 10:09:34;;;;;;;2.42;1.92;;;;;;;;;;4995439;28;20037;-55
2022/07/31 10:12:02;;;;;;;3.38;2.28;;;;;;;;;;4995947;28;20033;-58
2022/07/31 10:14:31;;;;;;;3.35;2.50;;;;;;;;;;4995233;28;20129;-57
2022/07/31 10:17:00;;;;;;;3.65;1.98;;;;;;;;;;4995464;28;20038;-58
2022/07/31 10:19:27;;;;;;;2.33;2.00;;;;;;;;;;4995618;28;20093;-57
2022/07/31 10:21:56;;;;;;;2.45;2.25;;;;;;;;;;4994819;28;20427;-58
2022/07/31 10:24:28;;;;;;;3.00;2.00;;;;;;;;;;4995601;28;20539;-58
2022/07/31 10:26:59;;;;;;;2.70;2.20;;;;;;;;;;4995398;28;20038;-58
2022/07/31 10:29:27;;;;;;;2.75;1.80;;;;;;;;;;4995176;28;20038;-57
2022/07/31 10:31:54;;;;;;;2.35;1.88;;;;;;;;;;4995659;28;20034;-57
2022/07/31 10:34:21;;;;;;;2.13;1.88;;;;;;;;;;4995041;28;20022;-57
2022/07/31 10:36:50;;;;;;;2.78;2.05;;;;;;;;;;4995544;28;20026;-57
2022/07/31 10:39:28;;;;;;;1.70;1.60;;;;;;;;;;4994869;28;20096;-57
2022/07/31 10:42:03;;;;;;;2.35;1.77;;;;;;;;;;4995173;28;20081;-57
2022/07/31 10:44:41;;;;;;;2.70;2.00;;;;;;;;;;4994900;28;20041;-58
2022/07/31 10:47:14;;;;;;;2.30;1.67;;;;;;;;;;4995128;28;20400;-57
2022/07/31 10:49:42;;;;;;;2.38;1.98;;;;;;;;;;4995521;28;20041;-58
2022/07/31 10:52:10;;;;;;;2.42;2.13;;;;;;;;;;4994506;28;20362;-57
2022/07/31 10:54:44;;;;;;;1.80;1.60;;;;;;;;;;4995212;28;20436;-56
2022/07/31 10:57:31;;;;;;;2.22;1.73;;;;;;;;;;4994767;28;20389;-58
2022/07/31 11:00:18;;;;;;;2.20;1.63;;;;;;;;;;4994750;28;20112;-56
2022/07/31 11:02:45;;;;;;;2.08;1.88;;;;;;;;;;4994618;28;20489;-57
2022/07/31 11:05:23;;;;;;;2.50;1.70;;;;;;;;;;4991863;28;20037;-58
2022/07/31 11:08:04;;;;;;;2.45;1.85;;;;;;;;;;4985905;28;20038;-57
2022/07/31 11:10:32;;;;;;;2.35;1.63;;;;;;;;;;4977923;28;20022;-57
2022/07/31 11:13:06;;;;;;;2.03;1.83;;;;;;;;;;4994528;28;20400;-57
2022/07/31 11:15:36;;;;;;;2.10;1.58;;;;;;;;;;4991321;28;20057;-57
2022/07/31 11:18:32;;;;;;;2.15;1.60;;;;;;;;;;4994101;28;20038;-56
2022/07/31 11:21:03;;;;;;;2.92;1.63;;;;;;;;;;4975252;28;20511;-57
2022/07/31 11:23:31;;;;;;;1.92;1.73;;;;;;;;;;4993527;28;20022;-55
2022/07/31 11:25:59;;;;;;;2.33;1.48;;;;;;;;;;4994145;28;20544;-57
2022/07/31 11:28:26;;;;;;;2.25;1.75;;;;;;;;;;4994180;28;20552;-57
2022/07/31 11:31:00;;;;;;;2.20;1.63;;;;;;;;;;4995014;28;20030;-57
2022/07/31 11:33:43;;;;;;;2.30;1.52;;;;;;;;;;4994410;28;20033;-57
2022/07/31 11:36:10;;;;;;;1.50;1.38;;;;;;;;;;4994756;28;20057;-57
2022/07/31 11:38:37;;;;;;;2.72;1.77;;;;;;;;;;4994524;28;20070;-58
2022/07/31 11:41:05;;;;;;;1.65;1.30;;;;;;;;;;4994040;28;20034;-57
2022/07/31 11:43:33;;;;;;;1.85;1.27;;;;;;;;;;4995025;28;20030;-57
2022/07/31 11:46:01;;;;;;;2.90;1.50;;;;;;;;;;4994029;28;20041;-56
2022/07/31 11:48:31;;;;;;;3.33;1.60;;;;;;;;;;4994469;28;20066;-57
2022/07/31 11:50:59;;;;;;;2.47;1.50;;;;;;;;;;4993757;28;20034;-57
2022/07/31 11:53:26;;;;;;;2.45;1.70;;;;;;;;;;4992450;28;20109;-58
2022/07/31 11:55:54;;;;;;;3.05;1.40;;;;;;;;;;4992842;28;20066;-57
2022/07/31 11:58:22;;;;;;;3.85;1.40;;;;;;;;;;4993942;28;20105;-57
2022/07/31 12:00:54;;;;;;;3.25;1.67;;;;;;;;;;4994401;28;20527;-53
2022/07/31 12:03:22;;;;;;;4.45;1.20;;;;;;;;;;4993608;28;20042;-56
2022/07/31 12:05:51;;;;;;;3.38;1.40;;;;;;;;;;4994269;28;20038;-57
2022/07/31 12:08:19;;;;;;;2.15;1.30;;;;;;;;;;4993341;28;20050;-57
2022/07/31 12:10:46;;;;;;;2.22;1.63;;;;;;;;;;4993740;28;20023;-58
2022/07/31 12:13:14;;;;;;;1.90;1.17;;;;;;;;;;4992897;28;20116;-55
2022/07/31 12:15:42;;;;;;;1.90;1.30;;;;;;;;;;4992892;28;20129;-56
2022/07/31 12:18:09;;;;;;;2.03;1.30;;;;;;;;;;4993819;28;20063;-55
2022/07/31 12:20:36;;;;;;;2.38;1.35;;;;;;;;;;4993468;28;20033;-55
2022/07/31 12:23:04;;;;;;;2.45;1.20;;;;;;;;;;4993525;28;20033;-55
2022/07/31 12:25:40;;;;;;;1.95;1.42;;;;;;;;;;4993476;28;20078;-58
2022/07/31 12:28:08;;;;;;;3.65;1.20;;;;;;;;;;4992827;28;20034;-57
2022/07/31 12:30:35;;;;;;;3.22;1.20;;;;;;;;;;4993465;28;20382;-58
2022/07/31 12:33:06;;;;;;;1.98;1.23;;;;;;;;;;4993250;28;20037;-55
2022/07/31 12:35:37;;;;;;;1.98;1.30;;;;;;;;;;4993350;28;20476;-58
2022/07/31 12:38:04;;;;;;;2.35;1.48;;;;;;;;;;4993237;28;20022;-58
2022/07/31 12:40:31;;;;;;;1.10;1.00;;;;;;;;;;4992900;28;20073;-57
2022/07/31 12:42:58;;;;;;;2.00;1.17;;;;;;;;;;4993239;28;20540;-58
2022/07/31 12:45:33;;;;;;;2.03;1.10;;;;;;;;;;4992643;28;20026;-57
2022/07/31 12:48:00;;;;;;;2.13;1.50;;;;;;;;;;4993212;28;20026;-58
2022/07/31 12:50:28;;;;;;;1.75;1.23;;;;;;;;;;4992898;28;20031;-56
2022/07/31 12:52:58;;;;;;;2.38;1.20;;;;;;;;;;4992687;28;20469;-58
2022/07/31 12:55:25;;;;;;;3.13;1.70;;;;;;;;;;4993256;28;20069;-58
2022/07/31 12:57:52;;;;;;;2.42;1.40;;;;;;;;;;4992464;28;20031;-58
2022/07/31 13:00:23;;;;;;;3.72;1.27;;;;;;;;;;4992805;28;20054;-58
2022/07/31 13:02:50;;;;;;;2.13;1.40;;;;;;;;;;4992635;28;20029;-57
2022/07/31 13:05:17;;;;;;;1.83;1.10;;;;;;;;;;4992040;28;20034;-56
2022/07/31 13:07:44;;;;;;;2.33;1.15;;;;;;;;;;4992876;28;20118;-57
2022/07/31 13:10:11;;;;;;;1.30;1.17;;;;;;;;;;4992204;28;20054;-57
2022/07/31 13:12:38;;;;;;;1.50;1.10;;;;;;;;;;4992689;28;20101;-57
2022/07/31 13:15:05;;;;;;;2.45;1.20;;;;;;;;;;4991586;28;20125;-57
2022/07/31 13:17:32;;;;;;;2.17;1.30;;;;;;;;;;4992458;28;20033;-57
2022/07/31 13:19:59;;;;;;;1.63;1.10;;;;;;;;;;4992603;28;20031;-57
2022/07/31 13:22:26;;;;;;;1.10;1.00;;;;;;;;;;4991516;28;20136;-58
2022/07/31 13:24:53;;;;;;;1.25;1.10;;;;;;;;;;4992675;28;20023;-57
2022/07/31 13:27:20;;;;;;;1.65;1.30;;;;;;;;;;4991098;28;20073;-57
2022/07/31 13:29:47;;;;;;;1.80;1.27;;;;;;;;;;4992242;28;20027;-57
2022/07/31 13:32:15;;;;;;;1.27;0.98;;;;;;;;;;4972904;28;20027;-58
2022/07/31 13:34:42;;;;;;;1.45;1.10;;;;;;;;;;4961882;28;20118;-57
2022/07/31 13:37:09;;;;;;;2.80;1.30;;;;;;;;;;4974537;28;20035;-57
2022/07/31 13:39:36;;;;;;;1.40;1.17;;;;;;;;;;4973528;28;20118;-57
2022/07/31 13:42:04;;;;;;;1.23;0.90;;;;;;;;;;4972543;28;20037;-57
2022/07/31 13:44:32;;;;;;;1.70;1.15;;;;;;;;;;4971799;28;20027;-57
2022/07/31 13:46:59;;;;;;;1.83;0.90;;;;;;;;;;4972955;28;20045;-57
2022/07/31 13:49:31;;;;;;;3.60;1.30;;;;;;;;;;4971990;28;20539;-57
2022/07/31 13:52:01;;;;;;;2.20;1.10;;;;;;;;;;4972192;28;20588;-58
2022/07/31 13:54:28;;;;;;;1.20;1.10;;;;;;;;;;4972261;28;20120;-56
2022/07/31 13:56:55;;;;;;;2.30;1.20;;;;;;;;;;4972892;28;20497;-57
2022/07/31 13:59:22;;;;;;;1.00;0.80;;;;;;;;;;4971829;28;20030;-56
2022/07/31 14:01:52;;;;;;;1.45;1.15;;;;;;;;;;4972127;28;20633;-58
2022/07/31 14:04:19;;;;;;;1.40;1.20;;;;;;;;;;4972341;28;20026;-57
2022/07/31 14:06:47;;;;;;;1.08;0.95;;;;;;;;;;4971480;28;20038;-57
2022/07/31 14:09:14;;;;;;;1.10;1.00;;;;;;;;;;4972695;28;20042;-58
2022/07/31 14:11:41;;;;;;;2.45;1.10;;;;;;;;;;4970224;28;20101;-56
2022/07/31 14:14:08;;;;;;;2.00;1.08;;;;;;;;;;4971733;28;20042;-58
2022/07/31 14:16:35;;;;;;;3.47;1.15;;;;;;;;;;4972233;28;20461;-59
2022/07/31 14:19:02;;;;;;;5.93;1.20;;;;;;;;;;4972319;28;20039;-58
2022/07/31 14:21:29;;;;;;;7.55;1.45;;;;;;;;;;4985838;28;20090;-58
2022/07/31 14:23:56;;;;;;;13.50;2.53;;;;;;;;;;4989754;28;20381;-58
2022/07/31 14:26:23;;;;;;;13.07;2.20;;;;;;;;;;4981237;28;20030;-58
2022/07/31 14:28:50;;;;;;;13.07;2.78;;;;;;;;;;4989552;28;20058;-58
2022/07/31 14:31:17;;;;;;;11.07;1.83;;;;;;;;;;4990818;28;20827;-58
2022/07/31 14:33:44;;;;;;;14.63;2.28;;;;;;;;;;4990749;28;20046;-57
2022/07/31 14:36:11;;;;;;;16.45;2.15;;;;;;;;;;4991050;28;20018;-58
2022/07/31 14:38:38;;;;;;;12.55;2.28;;;;;;;;;;4983409;28;20066;-57
2022/07/31 14:41:05;;;;;;;14.88;1.90;;;;;;;;;;4993577;28;20029;-59
2022/07/31 14:43:33;;;;;;;8.55;1.88;;;;;;;;;;4992637;28;20124;-58
2022/07/31 14:45:59;;;;;;;13.60;2.28;;;;;;;;;;4965460;28;20109;-57
2022/07/31 14:48:26;;;;;;;11.55;2.22;;;;;;;;;;4995476;28;20041;-59
2022/07/31 14:50:54;;;;;;;12.07;2.70;;;;;;;;;;4994848;28;20030;-58